Time;durP1;ratioP1;P1;durP2;ratioP2;P2;SDS_P1;SDS_P2;PMS_P1;PMS_P2;Temp;Humidity;BMP_temperature;BMP_pressure;BME280_temperature;BME280_humidity;BME280_pressure;Samples;Min_cycle;Max_cycle;Signal;HPM_P1;HPM_P2
2022/02/20 00:00:49;;;;;;;15.02;13.43;;;;;;;-0.21;87.05;96525.72;6267275;22;20010;-65
2022/02/20 00:03:15;;;;;;;20.95;15.27;;;;;;;-0.24;86.41;96525.84;6267426;22;20007;-64
2022/02/20 00:05:40;;;;;;;20.02;15.82;;;;;;;-0.28;86.79;96522.50;6268923;22;20388;-64
2022/02/20 00:08:06;;;;;;;26.05;18.20;;;;;;;-0.31;86.97;96512.28;6269139;22;20469;-64
2022/02/20 00:10:31;;;;;;;19.58;15.35;;;;;;;-0.30;86.91;96516.53;6269206;22;20435;-64
2022/02/20 00:12:57;;;;;;;27.15;16.23;;;;;;;-0.33;86.83;96512.34;6268710;22;20046;-64
2022/02/20 00:15:24;;;;;;;19.48;15.05;;;;;;;-0.37;87.28;96513.31;6265475;22;20032;-64
2022/02/20 00:17:50;;;;;;;18.95;13.95;;;;;;;-0.42;87.24;96515.25;6266522;22;20010;-64
2022/02/20 00:20:17;;;;;;;17.45;11.05;;;;;;;-0.46;87.32;96527.44;6267903;22;20576;-64
2022/02/20 00:22:43;;;;;;;11.43;8.57;;;;;;;-0.46;87.71;96522.25;6268241;22;20000;-64
2022/02/20 00:25:09;;;;;;;11.85;9.60;;;;;;;-0.41;86.41;96518.69;6268487;22;20137;-64
2022/02/20 00:27:34;;;;;;;13.95;8.90;;;;;;;-0.44;86.71;96517.91;6268533;22;20015;-64
2022/02/20 00:29:59;;;;;;;9.80;7.93;;;;;;;-0.50;86.67;96515.50;6268489;22;20065;-64
2022/02/20 00:32:25;;;;;;;12.88;8.45;;;;;;;-0.51;87.28;96513.81;6268409;22;20431;-64
2022/02/20 00:34:50;;;;;;;10.68;7.00;;;;;;;-0.49;87.19;96511.19;6268380;22;20324;-64
2022/02/20 00:37:16;;;;;;;7.43;6.35;;;;;;;-0.51;86.99;96510.41;6269512;22;20007;-64
2022/02/20 00:39:41;;;;;;;6.40;5.53;;;;;;;-0.53;87.11;96509.63;6269162;22;20007;-64
2022/02/20 00:42:07;;;;;;;13.23;6.13;;;;;;;-0.46;87.26;96505.91;6269331;22;20004;-64
2022/02/20 00:44:32;;;;;;;19.05;8.77;;;;;;;-0.16;84.71;96501.38;6242290;22;19999;-64
2022/02/20 00:46:57;;;;;;;38.72;17.48;;;;;;;-0.12;83.96;96496.91;6269331;22;20004;-64
2022/02/20 00:49:23;;;;;;;33.67;16.65;;;;;;;-0.28;85.37;96495.81;6269040;22;20347;-64
2022/02/20 00:51:48;;;;;;;33.80;16.70;;;;;;;-0.36;86.24;96494.31;6269061;22;20010;-64
2022/02/20 00:54:14;;;;;;;36.75;16.85;;;;;;;-0.40;85.99;96492.75;6268367;22;20039;-64
2022/02/20 00:56:39;;;;;;;32.25;15.73;;;;;;;-0.51;86.09;96485.34;6268983;22;20052;-64
2022/02/20 00:59:04;;;;;;;30.55;15.90;;;;;;;-0.54;87.01;96487.22;6268857;22;20016;-64
2022/02/20 01:01:30;;;;;;;24.20;12.45;;;;;;;-0.58;86.95;96481.31;6269339;22;20042;-64
2022/02/20 01:03:56;;;;;;;27.95;13.80;;;;;;;-0.65;87.66;96485.03;6268785;22;20336;-64
2022/02/20 01:06:22;;;;;;;27.50;13.07;;;;;;;-0.72;87.60;96485.22;6268957;22;20053;-64
2022/02/20 01:08:48;;;;;;;35.85;14.07;;;;;;;-0.70;87.77;96479.13;6269236;22;20004;-64
2022/02/20 01:11:14;;;;;;;25.90;11.90;;;;;;;-0.69;88.13;96473.06;6269010;22;20004;-64
2022/02/20 01:13:39;;;;;;;28.40;13.68;;;;;;;-0.66;87.65;96478.16;6268621;22;20336;-64
2022/02/20 01:16:05;;;;;;;24.20;11.95;;;;;;;-0.66;87.80;96479.00;6268769;22;20004;-64
2022/02/20 01:18:30;;;;;;;27.67;12.35;;;;;;;-0.74;89.22;96486.19;6269494;22;20038;-64
2022/02/20 01:20:56;;;;;;;23.45;11.93;;;;;;;-0.80;89.03;96487.22;6268812;22;20023;-64
2022/02/20 01:23:21;;;;;;;28.60;15.55;;;;;;;-0.79;88.33;96490.63;6268768;22;20011;-64
2022/02/20 01:25:47;;;;;;;24.55;13.10;;;;;;;-0.77;88.21;96496.63;6268768;22;20065;-64
2022/02/20 01:28:12;;;;;;;23.38;11.98;;;;;;;-0.82;88.66;96499.38;6241603;22;20411;-64
2022/02/20 01:30:37;;;;;;;24.00;12.48;;;;;;;-0.88;89.04;96507.34;6268579;22;20003;-64
2022/02/20 01:33:03;;;;;;;33.25;16.95;;;;;;;-0.93;89.32;96512.66;6268963;22;20086;-64
2022/02/20 01:35:29;;;;;;;31.10;16.83;;;;;;;-0.93;89.29;96512.66;6268819;22;20000;-65
2022/02/20 01:37:54;;;;;;;22.23;13.13;;;;;;;-0.92;89.06;96518.66;6269054;22;20003;-64
2022/02/20 01:40:20;;;;;;;23.80;12.35;;;;;;;-0.97;88.79;96529.16;6268575;22;20112;-64
2022/02/20 01:42:46;;;;;;;21.67;11.77;;;;;;;-0.98;89.13;96537.81;6268603;22;20435;-64
2022/02/20 01:45:13;;;;;;;16.77;9.63;;;;;;;-0.99;88.78;96540.44;6268689;22;20007;-64
2022/02/20 01:47:39;;;;;;;14.65;9.50;;;;;;;-0.97;88.73;96543.81;6267359;22;20004;-64
2022/02/20 01:50:05;;;;;;;16.70;10.38;;;;;;;-1.01;89.00;96548.25;6268294;22;20448;-64
2022/02/20 01:52:31;;;;;;;15.77;10.05;;;;;;;-0.99;88.67;96554.22;6268642;22;20010;-64
2022/02/20 01:54:56;;;;;;;13.35;8.73;;;;;;;-1.03;89.83;96553.47;6268215;22;20338;-64
2022/02/20 01:57:22;;;;;;;13.93;8.18;;;;;;;-1.05;89.86;96551.81;6267560;22;20000;-64
2022/02/20 01:59:47;;;;;;;15.05;8.70;;;;;;;-1.09;89.44;96555.41;6268000;22;20000;-64
2022/02/20 02:02:13;;;;;;;22.90;14.30;;;;;;;-1.17;90.56;96559.09;6241069;22;20012;-64
2022/02/20 02:04:39;;;;;;;23.60;13.13;;;;;;;-1.21;90.56;96551.47;6267500;22;20003;-64
2022/02/20 02:07:04;;;;;;;16.13;9.88;;;;;;;-1.26;90.96;96538.69;6267603;22;20049;-64
2022/02/20 02:09:30;;;;;;;11.77;7.47;;;;;;;-1.26;90.01;96543.03;6268192;22;20034;-64
2022/02/20 02:11:55;;;;;;;12.43;7.72;;;;;;;-1.25;90.69;96531.78;6268465;22;20053;-64
2022/02/20 02:14:20;;;;;;;11.65;7.47;;;;;;;-1.18;90.45;96522.94;6268210;22;20431;-64
2022/02/20 02:16:46;;;;;;;9.52;7.05;;;;;;;-1.11;90.38;96521.00;6267563;22;20004;-64
2022/02/20 02:19:11;;;;;;;11.55;7.18;;;;;;;-1.00;89.74;96511.16;6268529;22;20072;-64
2022/02/20 02:21:38;;;;;;;8.60;6.35;;;;;;;-0.92;89.99;96510.91;6268638;22;20075;-64
2022/02/20 02:24:03;;;;;;;12.52;7.43;;;;;;;-0.89;90.12;96514.25;6268232;22;20004;-64
2022/02/20 02:26:31;;;;;;;7.15;5.10;;;;;;;-0.87;90.16;96512.44;6268923;22;20018;-64
2022/02/20 02:28:57;;;;;;;12.93;6.40;;;;;;;-0.83;89.27;96500.25;6269570;22;20440;-64
2022/02/20 02:31:22;;;;;;;8.82;4.93;;;;;;;-0.76;88.47;96498.31;6269891;22;20008;-64
2022/02/20 02:33:50;;;;;;;7.32;4.75;;;;;;;-0.80;88.26;96497.56;6269463;22;20045;-64
2022/02/20 02:36:16;;;;;;;8.55;5.07;;;;;;;-0.87;89.04;96491.75;6270169;22;20447;-63
2022/02/20 02:38:41;;;;;;;6.18;4.32;;;;;;;-0.87;90.11;96501.28;6269897;22;20343;-64
2022/02/20 02:41:09;;;;;;;8.10;4.70;;;;;;;-0.90;89.45;96499.63;6269623;22;20087;-63
2022/02/20 02:43:36;;;;;;;7.93;5.05;;;;;;;-0.70;88.23;96498.09;6269626;22;20008;-64
2022/02/20 02:46:04;;;;;;;5.53;4.15;;;;;;;-0.60;87.08;96496.88;6269494;22;20629;-64
2022/02/20 02:48:30;;;;;;;7.50;4.55;;;;;;;-0.74;88.16;96493.94;6269865;22;20012;-64
2022/02/20 02:50:55;;;;;;;7.68;4.47;;;;;;;-0.79;89.23;96504.44;6269413;22;20004;-64
2022/02/20 02:53:21;;;;;;;5.47;3.67;;;;;;;-0.54;86.90;96510.50;6269893;22;20006;-64
2022/02/20 02:55:51;;;;;;;6.30;4.22;;;;;;;-0.50;87.03;96505.16;6269989;22;20000;-64
2022/02/20 02:58:21;;;;;;;7.15;3.72;;;;;;;-0.41;86.74;96511.75;6269813;22;20336;-64
2022/02/20 03:00:48;;;;;;;7.13;4.05;;;;;;;-0.40;87.22;96505.69;6269768;22;20336;-64
2022/02/20 03:03:14;;;;;;;6.03;3.70;;;;;;;-0.40;87.96;96500.50;6269759;22;20388;-64
2022/02/20 03:05:40;;;;;;;6.18;3.83;;;;;;;-0.32;87.47;96493.31;6269725;22;20004;-64
2022/02/20 03:08:06;;;;;;;4.55;3.92;;;;;;;-0.26;87.49;96487.06;6269451;22;20358;-64
2022/02/20 03:10:31;;;;;;;8.38;4.43;;;;;;;-0.19;87.22;96485.09;6269659;22;20088;-63
2022/02/20 03:12:56;;;;;;;5.78;4.00;;;;;;;-0.13;87.86;96474.50;6269825;22;20033;-64
2022/02/20 03:15:22;;;;;;;6.85;3.92;;;;;;;-0.10;87.37;96471.84;6269544;22;20010;-64
2022/02/20 03:17:47;;;;;;;6.25;4.35;;;;;;;-0.03;87.10;96462.06;6269456;22;20000;-64
2022/02/20 03:20:12;;;;;;;6.07;3.90;;;;;;;0.08;85.14;96459.06;6269753;22;20004;-63
2022/02/20 03:22:38;;;;;;;5.30;3.65;;;;;;;0.09;85.75;96460.75;6269320;22;20011;-63
2022/02/20 03:25:05;;;;;;;5.40;4.25;;;;;;;0.09;85.39;96456.44;6269346;22;20039;-63
2022/02/20 03:27:30;;;;;;;7.55;3.83;;;;;;;0.12;84.76;96445.13;6269299;22;20008;-63
2022/02/20 03:29:56;;;;;;;4.50;2.90;;;;;;;0.20;85.22;96456.03;6269479;22;20057;-63
2022/02/20 03:32:21;;;;;;;9.40;3.40;;;;;;;0.27;85.56;96448.88;6269742;22;20360;-63
2022/02/20 03:34:46;;;;;;;4.47;3.58;;;;;;;0.26;85.29;96442.00;6269033;22;20003;-63
2022/02/20 03:37:12;;;;;;;4.05;3.63;;;;;;;0.26;85.68;96444.59;6269391;22;20079;-63
2022/02/20 03:39:37;;;;;;;6.45;3.40;;;;;;;0.30;85.34;96448.75;6269134;22;20003;-63
2022/02/20 03:42:03;;;;;;;3.55;3.20;;;;;;;0.28;85.99;96450.56;6269217;22;20008;-63
2022/02/20 03:44:29;;;;;;;17.08;6.78;;;;;;;0.28;86.67;96453.97;6269370;22;20000;-64
2022/02/20 03:46:54;;;;;;;17.48;7.15;;;;;;;0.34;85.57;96446.88;6269274;22;20455;-63
2022/02/20 03:49:19;;;;;;;16.13;6.30;;;;;;;0.42;85.62;96444.81;6269352;22;20016;-63
2022/02/20 03:51:45;;;;;;;19.25;6.40;;;;;;;0.46;86.41;96448.16;6269668;22;20007;-63
2022/02/20 03:54:11;;;;;;;10.88;4.43;;;;;;;0.49;85.96;96448.84;6269413;22;20083;-64
2022/02/20 03:56:36;;;;;;;12.65;5.50;;;;;;;0.55;84.47;96448.63;6269196;22;20007;-63
2022/02/20 03:59:02;;;;;;;12.80;4.45;;;;;;;0.57;84.38;96451.13;6269323;22;20458;-63
2022/02/20 04:01:28;;;;;;;8.65;3.65;;;;;;;0.60;83.20;96450.19;6269504;22;20004;-64
2022/02/20 04:03:53;;;;;;;7.07;3.85;;;;;;;0.70;83.67;96456.66;6269278;22;20000;-64
2022/02/20 04:06:18;;;;;;;5.38;4.00;;;;;;;0.76;83.09;96465.94;6242098;22;20059;-63
2022/02/20 04:08:44;;;;;;;8.63;4.57;;;;;;;0.72;84.96;96462.63;6269216;22;20443;-64
2022/02/20 04:11:09;;;;;;;9.88;3.95;;;;;;;0.71;84.88;96458.34;6269426;22;20053;-63
2022/02/20 04:13:35;;;;;;;5.25;3.70;;;;;;;0.74;84.90;96454.78;6269394;22;19999;-63
2022/02/20 04:16:00;;;;;;;5.60;3.10;;;;;;;0.76;84.57;96448.63;6269305;22;20004;-63
2022/02/20 04:18:25;;;;;;;6.60;3.08;;;;;;;0.79;85.24;96450.25;6269226;22;20011;-63
2022/02/20 04:20:51;;;;;;;3.42;2.80;;;;;;;0.78;84.04;96449.44;6269499;22;20031;-64
2022/02/20 04:23:16;;;;;;;4.50;2.88;;;;;;;0.78;83.97;96449.44;6269237;22;20431;-63
2022/02/20 04:25:41;;;;;;;3.80;3.03;;;;;;;0.79;82.84;96445.94;6269092;22;19999;-63
2022/02/20 04:28:07;;;;;;;4.35;2.90;;;;;;;0.84;82.30;96451.75;6269320;22;20011;-63
2022/02/20 04:30:32;;;;;;;2.83;2.58;;;;;;;0.88;82.20;96449.88;6269208;22;20007;-63
2022/02/20 04:32:58;;;;;;;2.97;2.70;;;;;;;0.95;82.27;96445.28;6268730;22;20336;-63
2022/02/20 04:35:23;;;;;;;6.78;2.65;;;;;;;1.03;82.71;96452.75;6270155;22;20070;-64
2022/02/20 04:37:53;;;;;;;3.38;2.55;;;;;;;0.96;84.63;96452.16;6269178;22;20004;-64
2022/02/20 04:40:19;;;;;;;5.80;2.90;;;;;;;0.83;86.75;96450.06;6268975;22;20006;-63
2022/02/20 04:42:46;;;;;;;4.80;2.33;;;;;;;0.80;87.56;96447.63;6269203;22;20352;-63
2022/02/20 04:45:12;;;;;;;3.10;2.58;;;;;;;0.87;86.28;96445.59;6269252;22;20004;-63
2022/02/20 04:47:37;;;;;;;4.90;2.70;;;;;;;0.92;86.21;96451.44;6268988;22;20033;-64
2022/02/20 04:50:03;;;;;;;5.38;2.95;;;;;;;0.96;85.67;96444.38;6268632;22;20015;-63
2022/02/20 04:52:29;;;;;;;3.03;2.83;;;;;;;1.14;83.74;96453.97;6269787;22;20391;-63
2022/02/20 04:54:54;;;;;;;5.60;2.60;;;;;;;1.12;82.00;96471.34;6268955;22;20019;-63
2022/02/20 04:57:20;;;;;;;5.93;3.45;;;;;;;1.17;81.04;96462.53;6269077;22;20427;-64
2022/02/20 04:59:45;;;;;;;5.53;3.40;;;;;;;1.22;81.59;96466.63;6269010;22;20004;-64
2022/02/20 05:02:10;;;;;;;3.47;3.20;;;;;;;1.16;82.10;96473.81;6268662;22;20558;-63
2022/02/20 05:04:36;;;;;;;6.18;3.55;;;;;;;1.12;82.63;96475.72;6241824;22;20003;-63
2022/02/20 05:07:02;;;;;;;3.83;3.20;;;;;;;1.08;84.41;96472.41;6269149;22;20003;-63
2022/02/20 05:09:27;;;;;;;3.50;3.20;;;;;;;1.11;84.18;96461.88;6268682;22;20003;-63
2022/02/20 05:11:52;;;;;;;3.15;2.75;;;;;;;1.11;84.76;96461.88;6268882;22;20035;-63
2022/02/20 05:14:18;;;;;;;5.00;3.55;;;;;;;1.08;84.41;96462.00;6269040;22;20018;-64
2022/02/20 05:16:43;;;;;;;2.85;2.65;;;;;;;1.06;84.87;96465.56;6269482;22;20000;-63
2022/02/20 05:19:08;;;;;;;3.65;3.08;;;;;;;1.04;84.73;96454.41;6268628;22;20007;-63
2022/02/20 05:21:34;;;;;;;3.78;3.13;;;;;;;1.00;84.73;96451.97;6269143;22;20380;-64
2022/02/20 05:23:59;;;;;;;5.18;3.38;;;;;;;1.03;84.87;96466.56;6268715;22;20004;-63
2022/02/20 05:26:25;;;;;;;4.00;2.85;;;;;;;1.07;84.43;96457.75;6268596;22;20026;-63
2022/02/20 05:28:50;;;;;;;4.03;3.63;;;;;;;1.06;85.33;96452.59;6268505;22;20016;-64
2022/02/20 05:31:15;;;;;;;6.22;3.63;;;;;;;1.04;85.08;96449.22;6268997;22;20000;-64
2022/02/20 05:33:42;;;;;;;3.55;3.22;;;;;;;1.02;85.41;96446.72;6268661;22;19995;-64
2022/02/20 05:36:08;;;;;;;5.43;3.17;;;;;;;1.05;85.79;96444.00;6268614;22;20027;-64
2022/02/20 05:38:34;;;;;;;5.05;3.08;;;;;;;1.05;85.92;96437.94;6268535;22;19996;-64
2022/02/20 05:40:59;;;;;;;4.43;3.28;;;;;;;1.09;86.01;96447.28;6268667;22;20011;-63
2022/02/20 05:43:24;;;;;;;4.88;3.78;;;;;;;1.09;86.61;96450.72;6269007;22;20031;-64
2022/02/20 05:45:50;;;;;;;4.05;3.20;;;;;;;1.10;85.51;96444.63;6268319;22;20366;-64
2022/02/20 05:48:17;;;;;;;3.75;3.33;;;;;;;1.12;84.86;96437.63;6241842;22;20000;-64
2022/02/20 05:50:42;;;;;;;5.68;3.63;;;;;;;1.11;85.37;96451.50;6268455;22;20000;-64
2022/02/20 05:53:08;;;;;;;4.13;3.50;;;;;;;1.08;87.67;96448.19;6268582;22;20007;-63
2022/02/20 05:55:34;;;;;;;3.85;3.30;;;;;;;1.11;86.81;96442.91;6268921;22;20047;-64
2022/02/20 05:57:59;;;;;;;2.92;2.60;;;;;;;1.11;87.16;96435.94;6268590;22;20024;-64
2022/02/20 06:00:27;;;;;;;4.65;3.58;;;;;;;1.07;86.84;96439.59;6268996;22;20004;-63
2022/02/20 06:02:53;;;;;;;7.25;3.85;;;;;;;1.14;85.65;96440.16;6269269;22;20000;-64
2022/02/20 06:05:19;;;;;;;5.30;3.97;;;;;;;1.19;84.74;96438.22;6269382;22;20075;-64
2022/02/20 06:07:44;;;;;;;6.88;5.30;;;;;;;1.20;84.85;96441.63;6270072;22;20091;-64
2022/02/20 06:10:11;;;;;;;7.43;4.88;;;;;;;1.22;84.57;96448.47;6269590;22;20099;-63
2022/02/20 06:12:37;;;;;;;5.80;4.50;;;;;;;1.24;83.70;96445.81;6269642;22;20010;-63
2022/02/20 06:15:04;;;;;;;5.40;4.38;;;;;;;1.23;84.67;96452.72;6269694;22;20004;-64
2022/02/20 06:17:30;;;;;;;8.10;4.70;;;;;;;1.19;86.75;96450.31;6269822;22;20006;-64
2022/02/20 06:19:55;;;;;;;8.80;4.85;;;;;;;1.20;86.70;96457.19;6269571;22;20339;-64
2022/02/20 06:22:20;;;;;;;7.10;4.80;;;;;;;1.20;86.23;96458.06;6269726;22;20316;-64
2022/02/20 06:24:46;;;;;;;7.25;3.60;;;;;;;1.21;85.48;96466.66;6269987;22;20004;-64
2022/02/20 06:27:11;;;;;;;6.03;4.60;;;;;;;1.20;86.17;96467.56;6269667;22;20064;-64
2022/02/20 06:29:37;;;;;;;5.22;3.20;;;;;;;1.16;87.11;96469.47;6269582;22;20007;-64
2022/02/20 06:32:03;;;;;;;12.38;5.15;;;;;;;1.18;85.75;96475.44;6269746;22;20004;-64
2022/02/20 06:34:29;;;;;;;4.28;3.53;;;;;;;1.19;85.23;96478.88;6270024;22;20440;-64
2022/02/20 06:36:54;;;;;;;7.32;4.28;;;;;;;1.22;85.23;96489.13;6269622;22;20010;-64
2022/02/20 06:39:20;;;;;;;6.68;4.30;;;;;;;1.27;85.77;96487.19;6269582;22;20075;-64
2022/02/20 06:41:46;;;;;;;5.50;4.60;;;;;;;1.24;87.88;96480.38;6269779;22;20002;-64
2022/02/20 06:44:12;;;;;;;5.15;3.65;;;;;;;1.23;88.07;96488.22;6242535;22;20023;-64
2022/02/20 06:46:38;;;;;;;5.22;3.40;;;;;;;1.20;87.11;96486.59;6269740;22;20743;-64
2022/02/20 06:49:06;;;;;;;7.15;4.40;;;;;;;1.21;86.83;96497.78;6269408;22;20055;-64
2022/02/20 06:51:31;;;;;;;7.80;4.03;;;;;;;1.25;85.81;96499.38;6270155;22;20004;-64
2022/02/20 06:53:56;;;;;;;6.68;5.15;;;;;;;1.30;85.28;96505.22;6242389;22;20038;-64
2022/02/20 06:56:22;;;;;;;6.13;4.15;;;;;;;1.34;85.22;96506.75;6269604;22;20034;-64
2022/02/20 06:58:47;;;;;;;6.70;4.53;;;;;;;1.37;85.25;96503.22;6269635;22;20013;-64
2022/02/20 07:01:13;;;;;;;7.97;7.18;;;;;;;1.35;86.44;96505.84;6269377;22;20004;-64
2022/02/20 07:03:38;;;;;;;15.73;8.68;;;;;;;1.36;88.01;96509.31;6269602;22;20032;-64
2022/02/20 07:06:04;;;;;;;7.38;6.68;;;;;;;1.38;87.50;96516.09;6269458;22;20004;-64
2022/02/20 07:08:30;;;;;;;6.20;5.45;;;;;;;1.38;87.62;96521.28;6269394;22;20008;-64
2022/02/20 07:10:55;;;;;;;5.93;5.13;;;;;;;1.40;87.38;96527.25;6269380;22;20003;-64
2022/02/20 07:13:21;;;;;;;6.22;5.40;;;;;;;1.52;85.02;96525.06;6269752;22;20004;-64
2022/02/20 07:15:48;;;;;;;8.27;7.22;;;;;;;1.51;85.43;96529.41;6269594;22;20052;-64
2022/02/20 07:18:13;;;;;;;7.93;7.13;;;;;;;1.53;87.03;96530.16;6269642;22;20447;-64
2022/02/20 07:20:39;;;;;;;9.15;8.25;;;;;;;1.63;85.42;96522.81;6269344;22;20031;-64
2022/02/20 07:23:04;;;;;;;15.45;9.35;;;;;;;1.68;84.17;96530.44;6269559;22;20446;-64
2022/02/20 07:25:30;;;;;;;12.38;8.40;;;;;;;1.75;84.07;96533.59;6269363;22;20055;-63
2022/02/20 07:27:55;;;;;;;15.50;11.20;;;;;;;1.86;82.28;96533.97;6269467;22;20480;-64
2022/02/20 07:30:23;;;;;;;22.17;13.07;;;;;;;1.75;84.25;96537.03;6269526;22;20035;-64
2022/02/20 07:32:48;;;;;;;13.68;8.93;;;;;;;1.84;83.04;96543.56;6269478;22;20000;-64
2022/02/20 07:35:14;;;;;;;8.45;7.10;;;;;;;1.70;82.38;96541.59;6269586;22;20011;-64
2022/02/20 07:37:39;;;;;;;10.30;7.68;;;;;;;1.77;82.93;96543.03;6269269;22;20376;-64
2022/02/20 07:40:07;;;;;;;10.82;9.27;;;;;;;1.76;84.86;96541.31;6268876;22;20424;-64
2022/02/20 07:42:33;;;;;;;14.85;10.52;;;;;;;1.79;84.83;96540.34;6270119;22;20078;-64
2022/02/20 07:44:58;;;;;;;14.93;10.55;;;;;;;1.81;85.28;96549.78;6269412;22;20031;-64
2022/02/20 07:47:24;;;;;;;18.27;10.52;;;;;;;1.84;84.91;96553.97;6269583;22;20004;-64
2022/02/20 07:49:49;;;;;;;13.95;9.90;;;;;;;1.84;84.37;96549.63;6269014;22;20019;-64
2022/02/20 07:52:14;;;;;;;12.85;9.18;;;;;;;1.90;84.31;96553.72;6269556;22;20094;-64
2022/02/20 07:54:40;;;;;;;11.02;8.90;;;;;;;1.96;85.00;96558.63;6240356;22;20339;-64
2022/02/20 07:57:06;;;;;;;13.93;10.63;;;;;;;2.02;83.67;96565.31;6269622;22;20071;-64
2022/02/20 07:59:32;;;;;;;18.98;14.07;;;;;;;2.15;82.98;96573.41;6269330;22;20024;-64
2022/02/20 08:01:57;;;;;;;14.38;11.25;;;;;;;2.19;82.70;96569.75;6269139;22;20442;-64
2022/02/20 08:04:23;;;;;;;12.07;10.25;;;;;;;2.29;83.13;96584.00;6269031;22;20015;-64
2022/02/20 08:06:48;;;;;;;10.38;8.55;;;;;;;2.39;83.56;96575.81;6269241;22;20028;-64
2022/02/20 08:09:13;;;;;;;9.18;8.25;;;;;;;2.48;82.74;96582.34;6269714;22;20007;-65
2022/02/20 08:11:39;;;;;;;13.57;7.70;;;;;;;2.54;82.27;96590.72;6269432;22;20004;-64
2022/02/20 08:14:07;;;;;;;9.02;5.63;;;;;;;2.65;81.39;96592.84;6269016;22;20087;-64
2022/02/20 08:16:33;;;;;;;5.38;4.65;;;;;;;2.74;81.18;96585.50;6269335;22;20007;-64
2022/02/20 08:18:58;;;;;;;12.20;7.75;;;;;;;2.86;79.84;96585.78;6269402;22;20004;-65
2022/02/20 08:21:23;;;;;;;9.75;8.23;;;;;;;3.00;78.20;96592.09;6269357;22;20370;-65
2022/02/20 08:23:52;;;;;;;9.07;7.95;;;;;;;3.04;77.62;96578.00;6268598;22;19999;-65
2022/02/20 08:26:18;;;;;;;10.70;9.20;;;;;;;3.02;77.23;96582.44;6267893;22;20717;-64
2022/02/20 08:28:43;;;;;;;7.60;6.68;;;;;;;3.04;75.11;96578.00;6268303;22;20044;-66
2022/02/20 08:31:09;;;;;;;11.60;10.40;;;;;;;3.10;75.47;96571.69;6268360;22;20004;-66
2022/02/20 08:33:35;;;;;;;13.35;10.02;;;;;;;3.21;75.41;96571.16;6268379;22;20087;-68
2022/02/20 08:36:01;;;;;;;9.38;8.35;;;;;;;3.44;74.85;96570.00;6268391;22;20083;-64
2022/02/20 08:38:27;;;;;;;10.95;6.82;;;;;;;3.63;76.69;96569.91;6267766;22;20004;-64
2022/02/20 08:40:52;;;;;;;9.75;7.20;;;;;;;3.97;77.05;96567.34;6264926;22;20004;-65
2022/02/20 08:43:20;;;;;;;10.65;8.40;;;;;;;4.35;75.79;96559.28;6267423;22;20007;-66
2022/02/20 08:45:48;;;;;;;18.80;11.40;;;;;;;5.01;74.64;96559.22;6268520;22;20003;-63
2022/02/20 08:48:16;;;;;;;12.50;7.65;;;;;;;5.32;72.22;96565.31;6267712;22;20014;-64
2022/02/20 08:50:42;;;;;;;10.35;6.50;;;;;;;5.36;69.79;96571.19;6268332;22;20048;-65
2022/02/20 08:53:08;;;;;;;12.85;7.70;;;;;;;5.22;69.23;96567.59;6267502;22;20007;-66
2022/02/20 08:55:33;;;;;;;19.85;11.52;;;;;;;5.14;70.71;96560.19;6268323;22;20473;-57
2022/02/20 08:57:59;;;;;;;10.32;8.57;;;;;;;4.98;70.51;96565.44;6267957;22;20010;-54
2022/02/20 09:00:24;;;;;;;11.90;7.55;;;;;;;4.93;70.90;96567.47;6269161;22;20015;-57
2022/02/20 09:02:49;;;;;;;11.82;6.43;;;;;;;5.10;70.55;96565.69;6268626;22;20074;-55
2022/02/20 09:05:15;;;;;;;11.00;5.45;;;;;;;5.15;69.52;96568.88;6269021;22;20035;-55
2022/02/20 09:07:41;;;;;;;6.80;5.22;;;;;;;5.26;68.24;96570.88;6268948;22;20067;-57
2022/02/20 09:10:08;;;;;;;6.00;4.85;;;;;;;5.30;68.17;96580.22;6268578;22;20060;-57
2022/02/20 09:12:35;;;;;;;7.40;4.35;;;;;;;5.39;67.98;96577.06;6268916;22;20004;-56
2022/02/20 09:15:01;;;;;;;4.82;3.67;;;;;;;5.54;65.04;96577.97;6268132;22;20043;-55
2022/02/20 09:17:27;;;;;;;6.85;4.15;;;;;;;5.77;63.65;96585.38;6268871;22;20080;-55
2022/02/20 09:19:52;;;;;;;5.90;4.38;;;;;;;6.13;64.10;96581.56;6267399;22;20044;-56
2022/02/20 09:22:18;;;;;;;6.88;6.10;;;;;;;6.33;62.06;96572.50;6267419;22;20072;-54
2022/02/20 09:24:43;;;;;;;6.90;4.70;;;;;;;6.45;61.29;96568.28;6268772;22;20004;-56
2022/02/20 09:27:09;;;;;;;8.98;3.90;;;;;;;6.45;60.86;96563.91;6268448;22;20012;-55
2022/02/20 09:29:35;;;;;;;4.03;3.50;;;;;;;6.48;59.42;96555.00;6268214;22;20000;-55
2022/02/20 09:32:02;;;;;;;7.25;5.43;;;;;;;6.68;58.78;96548.53;6268920;22;20012;-55
2022/02/20 09:34:28;;;;;;;5.20;4.15;;;;;;;6.81;57.78;96548.59;6269365;22;20040;-54
2022/02/20 09:36:54;;;;;;;4.13;2.85;;;;;;;6.83;57.24;96548.50;6269943;22;20479;-55
2022/02/20 09:39:19;;;;;;;3.65;3.35;;;;;;;6.94;56.79;96551.28;6270160;22;20007;-56
2022/02/20 09:41:44;;;;;;;3.50;3.20;;;;;;;6.98;56.02;96552.75;6242783;22;20008;-56
2022/02/20 09:44:10;;;;;;;4.95;3.13;;;;;;;7.29;56.44;96555.16;6269828;22;20037;-56
2022/02/20 09:46:40;;;;;;;3.47;2.97;;;;;;;7.61;55.43;96552.19;6269937;22;20000;-56
2022/02/20 09:49:07;;;;;;;4.65;3.95;;;;;;;8.03;54.58;96544.16;6270183;22;20488;-54
2022/02/20 09:51:33;;;;;;;7.00;4.40;;;;;;;8.38;54.60;96540.03;6270321;22;20003;-56
2022/02/20 09:53:58;;;;;;;3.78;3.40;;;;;;;8.62;52.56;96539.28;6269784;22;20044;-55
2022/02/20 09:56:24;;;;;;;4.32;3.85;;;;;;;8.99;52.57;96544.53;6269704;22;20351;-55
2022/02/20 09:58:50;;;;;;;4.63;3.60;;;;;;;9.12;51.86;96537.44;6269737;22;20695;-56
2022/02/20 10:01:17;;;;;;;4.32;3.30;;;;;;;9.38;50.94;96529.41;6269911;22;20010;-56
2022/02/20 10:03:44;;;;;;;4.07;3.10;;;;;;;9.86;50.01;96528.47;6270368;22;20027;-55
2022/02/20 10:06:13;;;;;;;7.25;2.83;;;;;;;10.32;48.64;96520.59;6269607;22;20057;-53
2022/02/20 10:08:42;;;;;;;3.40;2.95;;;;;;;10.46;46.39;96514.28;6269750;22;20008;-56
2022/02/20 10:11:21;;;;;;;4.82;2.30;;;;;;;10.20;45.36;96508.44;6269982;22;20011;-54
2022/02/20 10:13:52;;;;;;;3.47;2.70;;;;;;;10.20;44.23;96503.97;6270025;22;20014;-55
2022/02/20 10:16:22;;;;;;;5.88;2.67;;;;;;;10.16;44.84;96499.91;6243084;22;20021;-56
2022/02/20 10:18:49;;;;;;;2.85;2.65;;;;;;;9.98;45.36;96495.13;6270091;22;20088;-55
2022/02/20 10:21:32;;;;;;;2.08;1.90;;;;;;;10.63;44.36;96498.97;6269775;22;20012;-54
2022/02/20 10:24:08;;;;;;;2.22;1.77;;;;;;;10.79;43.19;96502.03;6269498;22;20051;-53
2022/02/20 10:26:42;;;;;;;3.28;1.85;;;;;;;10.87;40.66;96502.25;6269761;22;20039;-53
2022/02/20 10:29:10;;;;;;;5.78;2.90;;;;;;;11.22;41.54;96507.44;6269561;22;20121;-52
2022/02/20 10:31:44;;;;;;;3.15;2.85;;;;;;;11.15;40.32;96510.53;6269715;22;20008;-52
2022/02/20 10:34:20;;;;;;;5.32;2.60;;;;;;;11.38;42.68;96510.44;6269528;22;20083;-54
2022/02/20 10:36:59;;;;;;;3.22;2.35;;;;;;;11.22;40.77;96524.06;6270010;22;20015;-52
2022/02/20 10:39:31;;;;;;;2.42;1.70;;;;;;;11.64;41.25;96531.22;6269533;22;20447;-56
2022/02/20 10:41:58;;;;;;;2.40;2.20;;;;;;;11.81;39.29;96528.94;6269741;22;20000;-54
2022/02/20 10:44:24;;;;;;;3.00;2.15;;;;;;;12.39;38.36;96522.31;6269697;22;20008;-52
2022/02/20 10:47:08;;;;;;;2.50;1.80;;;;;;;12.57;38.32;96528.66;6269485;22;20385;-53
2022/02/20 10:49:33;;;;;;;2.25;1.83;;;;;;;12.64;36.06;96533.41;6269460;22;20014;-52
2022/02/20 10:51:58;;;;;;;3.88;2.08;;;;;;;13.00;36.51;96525.84;6269799;22;20004;-54
2022/02/20 10:54:24;;;;;;;5.50;2.10;;;;;;;13.59;36.37;96533.81;6269564;22;20455;-53
2022/02/20 10:56:50;;;;;;;2.17;1.98;;;;;;;13.92;34.65;96536.16;6269749;22;20006;-54
2022/02/20 10:59:19;;;;;;;2.97;1.98;;;;;;;14.17;34.08;96548.81;6269201;22;20004;-54
2022/02/20 11:01:44;;;;;;;3.03;2.70;;;;;;;13.89;34.55;96546.06;6269573;22;20004;-57
2022/02/20 11:04:11;;;;;;;4.10;2.60;;;;;;;13.95;36.33;96559.72;6269387;22;20007;-54
2022/02/20 11:06:41;;;;;;;6.75;3.05;;;;;;;14.32;36.24;96567.72;6269803;22;20027;-53
2022/02/20 11:09:09;;;;;;;4.05;2.95;;;;;;;14.36;37.02;96578.00;6269500;22;20011;-55
2022/02/20 11:11:37;;;;;;;5.18;2.85;;;;;;;14.37;36.81;96561.16;6269663;22;20000;-55
2022/02/20 11:14:08;;;;;;;6.93;2.88;;;;;;;14.49;35.96;96565.31;6268846;22;20004;-53
2022/02/20 11:16:39;;;;;;;3.83;2.88;;;;;;;14.58;35.33;96559.13;6269289;22;20467;-55
2022/02/20 11:19:05;;;;;;;4.07;2.70;;;;;;;14.81;34.82;96560.56;6240246;22;20027;-54
2022/02/20 11:21:33;;;;;;;4.53;3.25;;;;;;;14.76;34.34;96555.72;6265801;22;20000;-54
2022/02/20 11:24:00;;;;;;;3.30;2.55;;;;;;;15.12;34.69;96547.00;6267241;22;20000;-53
2022/02/20 11:26:28;;;;;;;3.70;2.58;;;;;;;15.03;33.65;96560.19;6268382;22;20015;-55
2022/02/20 11:28:56;;;;;;;5.25;2.80;;;;;;;15.49;33.01;96563.78;6269375;22;20034;-53